METAR Data
IDs: Format: Raw Decoded Include TAF

Data at: 0104 UTC 06 Dec 2019

KOGB 060053Z AUTO 00000KT 10SM CLR 06/01 A3018 RMK AO2 SLP221 T00610011
KOGB 052353Z AUTO 00000KT 10SM CLR 08/01 A3016 RMK AO2 SLP214 T00830011 10183 20083 53021
KOGB 052253Z AUTO 00000KT 10SM CLR 11/01 A3014 RMK AO2 SLP206 T01110011
KOGB 052153Z AUTO 00000KT 10SM CLR 16/M02 A3012 RMK AO2 SLP198 T01611017
KOGB 052053Z AUTO 00000KT 9SM CLR 18/M03 A3010 RMK AO2 SLP192 T01781033 53001
KOGB 051953Z AUTO 24003KT 10SM CLR 18/M03 A3009 RMK AO2 SLP187 T01781033
KOGB 051853Z AUTO 00000KT 10SM CLR 18/M03 A3009 RMK AO2 SLP187 T01781033
KOGB 051753Z AUTO 31003KT 10SM CLR 17/M03 A3010 RMK AO2 SLP191 T01671033 10167 20028 58006
KOGB 051653Z AUTO VRB03KT 10SM CLR 16/M04 A3011 RMK AO2 SLP196 T01611039
KOGB 051553Z AUTO 32005KT 10SM CLR 14/00 A3012 RMK AO2 SLP200 T01390000
KOGB 051453Z AUTO VRB04KT 10SM CLR 09/01 A3011 RMK AO2 SLP196 T00940006 53031
KOGB 051353Z AUTO 00000KT 10SM CLR 06/01 A3008 RMK AO2 SLP184 T00610011
KOGB 051253Z AUTO 00000KT 10SM CLR 03/01 A3005 RMK AO2 SLP175 T00330006
KOGB 051153Z AUTO 00000KT 10SM CLR 03/M01 A3002 RMK AO2 SLP166 T00331006 10089 20033 53028
KOGB 051053Z AUTO 28003KT 10SM CLR 07/M01 A2999 RMK AO2 SLP154 T00671006
KOGB 050953Z AUTO 29004KT 10SM CLR 08/00 A2996 RMK AO2 SLP143 T00780000
KOGB 050853Z AUTO 29007KT 10SM CLR 09/00 A2994 RMK AO2 SLP137 T00890000 53013
KOGB 050753Z AUTO 27005KT 10SM CLR 08/00 A2992 RMK AO2 SLP130 T00830000
KOGB 050653Z AUTO 23003KT 10SM CLR 08/00 A2991 RMK AO2 SLP126 T00780000
KOGB 050553Z AUTO 25005KT 10SM CLR 07/00 A2990 RMK AO2 SLP124 T00720000 10117 20072 51006
KOGB 050453Z AUTO 25004KT 10SM CLR 09/M01 A2990 RMK AO2 SLP124 T00891006 401610011
KOGB 050353Z AUTO 27004KT 10SM CLR 10/M01 A2989 RMK AO2 SLP121 T01001006
KOGB 050253Z AUTO 27005KT 10SM CLR 11/M01 A2988 RMK AO2 SLP118 T01111011 53015
KOGB 050153Z AUTO 25008KT 10SM CLR 12/M01 A2986 RMK AO2 SLP112 T01171006
KOGB 050053Z AUTO 24007KT 10SM CLR 11/00 A2985 RMK AO2 SLP109 T01110000
KOGB 042353Z AUTO 24006KT 10SM CLR 10/00 A2984 RMK AO2 SLP103 T01000000 10161 20100 53021
KOGB 042253Z AUTO 26008KT 10SM CLR 13/M01 A2981 RMK AO2 SLP095 T01281006
KOGB 042153Z AUTO 27013G18KT 10SM CLR 15/M02 A2979 RMK AO2 SLP088 T01501017
KOGB 042053Z AUTO 27012G16KT 10SM CLR 16/M01 A2978 RMK AO2 SLP082 T01611011 55006
KOGB 041953Z AUTO 25009G17KT 10SM CLR 16/M01 A2977 RMK AO2 SLP081 T01561006
KOGB 041853Z AUTO 27011KT 10SM CLR 14/M01 A2978 RMK AO2 SLP085 T01441006
KOGB 041753Z AUTO 25009KT 10SM CLR 13/M02 A2979 RMK AO2 SLP089 T01331017 10139 20011 58028
KOGB 041653Z AUTO 22004KT CLR 12/M02 A2982 RMK AO2 SLP099 T01221017 $
KOGB 041553Z AUTO 26006KT CLR 10/M02 A2986 RMK AO2 SLP111 T01001017 $
KOGB 041453Z AUTO 31007KT 10SM CLR 08/M01 A2988 RMK AO2 SLP117 T00781011 53020 $
KOGB 041353Z AUTO 29008KT 10SM CLR 05/M01 A2986 RMK AO2 SLP110 T00501011 $